sensor_id;sensor_type;location;lat;lon;timestamp;P1;durP1;ratioP1;P2;durP2;ratioP2
5813;SDS011;2933;52.302;8.134;2022-09-09T00:04:37;2.47;;;1.60;;
5813;SDS011;2933;52.302;8.134;2022-09-09T00:09:40;3.23;;;1.93;;
5813;SDS011;2933;52.302;8.134;2022-09-09T00:14:50;2.07;;;1.90;;
5813;SDS011;2933;52.302;8.134;2022-09-09T00:19:58;4.30;;;2.13;;
5813;SDS011;2933;52.302;8.134;2022-09-09T00:25:09;1.83;;;1.73;;
5813;SDS011;2933;52.302;8.134;2022-09-09T00:30:17;2.40;;;2.20;;
5813;SDS011;2933;52.302;8.134;2022-09-09T00:35:24;4.20;;;1.67;;
5813;SDS011;2933;52.302;8.134;2022-09-09T00:40:29;2.93;;;2.10;;
5813;SDS011;2933;52.302;8.134;2022-09-09T00:45:41;2.60;;;2.10;;
5813;SDS011;2933;52.302;8.134;2022-09-09T00:50:59;7.03;;;2.37;;
5813;SDS011;2933;52.302;8.134;2022-09-09T00:56:12;1.53;;;1.33;;
5813;SDS011;2933;52.302;8.134;2022-09-09T01:01:15;6.37;;;1.97;;
5813;SDS011;2933;52.302;8.134;2022-09-09T01:06:20;1.57;;;1.47;;
5813;SDS011;2933;52.302;8.134;2022-09-09T01:11:27;2.87;;;1.73;;
5813;SDS011;2933;52.302;8.134;2022-09-09T01:16:38;1.87;;;1.77;;
5813;SDS011;2933;52.302;8.134;2022-09-09T01:21:43;3.13;;;1.70;;
5813;SDS011;2933;52.302;8.134;2022-09-09T01:26:57;4.27;;;2.20;;
5813;SDS011;2933;52.302;8.134;2022-09-09T01:32:03;2.03;;;1.60;;
5813;SDS011;2933;52.302;8.134;2022-09-09T01:37:40;3.37;;;1.87;;
5813;SDS011;2933;52.302;8.134;2022-09-09T01:42:43;1.80;;;1.70;;
5813;SDS011;2933;52.302;8.134;2022-09-09T01:47:44;5.70;;;1.73;;
5813;SDS011;2933;52.302;8.134;2022-09-09T01:52:47;2.97;;;1.80;;
5813;SDS011;2933;52.302;8.134;2022-09-09T01:57:56;2.10;;;1.80;;
5813;SDS011;2933;52.302;8.134;2022-09-09T02:03:13;2.37;;;2.17;;
5813;SDS011;2933;52.302;8.134;2022-09-09T02:08:23;3.13;;;1.80;;
5813;SDS011;2933;52.302;8.134;2022-09-09T02:13:30;2.10;;;2.00;;
5813;SDS011;2933;52.302;8.134;2022-09-09T02:18:47;3.57;;;1.80;;
5813;SDS011;2933;52.302;8.134;2022-09-09T02:23:51;3.57;;;2.20;;
5813;SDS011;2933;52.302;8.134;2022-09-09T02:28:55;1.80;;;1.60;;
5813;SDS011;2933;52.302;8.134;2022-09-09T02:34:01;1.90;;;1.80;;
5813;SDS011;2933;52.302;8.134;2022-09-09T02:39:07;3.43;;;1.97;;
5813;SDS011;2933;52.302;8.134;2022-09-09T02:44:12;1.87;;;1.77;;
5813;SDS011;2933;52.302;8.134;2022-09-09T02:49:16;1.93;;;1.83;;
5813;SDS011;2933;52.302;8.134;2022-09-09T02:54:24;2.50;;;1.70;;
5813;SDS011;2933;52.302;8.134;2022-09-09T02:59:30;2.13;;;2.03;;
5813;SDS011;2933;52.302;8.134;2022-09-09T03:04:32;4.13;;;1.87;;
5813;SDS011;2933;52.302;8.134;2022-09-09T03:09:34;3.00;;;2.27;;
5813;SDS011;2933;52.302;8.134;2022-09-09T03:14:37;3.10;;;1.80;;
5813;SDS011;2933;52.302;8.134;2022-09-09T03:19:39;2.53;;;2.03;;
5813;SDS011;2933;52.302;8.134;2022-09-09T03:24:41;2.20;;;1.90;;
5813;SDS011;2933;52.302;8.134;2022-09-09T03:29:44;2.97;;;1.97;;
5813;SDS011;2933;52.302;8.134;2022-09-09T03:34:46;1.97;;;1.87;;
5813;SDS011;2933;52.302;8.134;2022-09-09T03:39:49;1.67;;;1.57;;
5813;SDS011;2933;52.302;8.134;2022-09-09T03:44:52;2.03;;;1.73;;
5813;SDS011;2933;52.302;8.134;2022-09-09T03:49:54;3.00;;;1.93;;
5813;SDS011;2933;52.302;8.134;2022-09-09T03:54:56;1.97;;;1.87;;
5813;SDS011;2933;52.302;8.134;2022-09-09T03:59:59;3.13;;;1.87;;
5813;SDS011;2933;52.302;8.134;2022-09-09T04:05:01;2.07;;;1.97;;
5813;SDS011;2933;52.302;8.134;2022-09-09T04:10:02;5.07;;;1.47;;
5813;SDS011;2933;52.302;8.134;2022-09-09T04:15:07;2.23;;;1.60;;
5813;SDS011;2933;52.302;8.134;2022-09-09T04:20:09;1.90;;;1.80;;
5813;SDS011;2933;52.302;8.134;2022-09-09T04:25:12;2.40;;;1.83;;
5813;SDS011;2933;52.302;8.134;2022-09-09T04:30:15;2.00;;;1.90;;
5813;SDS011;2933;52.302;8.134;2022-09-09T04:35:16;3.70;;;2.27;;
5813;SDS011;2933;52.302;8.134;2022-09-09T04:40:20;2.93;;;2.73;;
5813;SDS011;2933;52.302;8.134;2022-09-09T04:45:23;2.37;;;2.27;;
5813;SDS011;2933;52.302;8.134;2022-09-09T04:50:26;2.20;;;2.10;;
5813;SDS011;2933;52.302;8.134;2022-09-09T04:55:28;3.13;;;2.27;;
5813;SDS011;2933;52.302;8.134;2022-09-09T05:00:31;3.17;;;2.70;;
5813;SDS011;2933;52.302;8.134;2022-09-09T05:05:33;3.27;;;2.97;;
5813;SDS011;2933;52.302;8.134;2022-09-09T05:10:36;2.60;;;2.50;;
5813;SDS011;2933;52.302;8.134;2022-09-09T05:15:40;2.70;;;2.50;;
5813;SDS011;2933;52.302;8.134;2022-09-09T05:20:43;3.20;;;2.90;;
5813;SDS011;2933;52.302;8.134;2022-09-09T05:25:53;3.10;;;2.80;;
5813;SDS011;2933;52.302;8.134;2022-09-09T05:30:58;2.50;;;2.40;;
5813;SDS011;2933;52.302;8.134;2022-09-09T05:36:04;2.60;;;2.43;;
5813;SDS011;2933;52.302;8.134;2022-09-09T05:41:08;2.37;;;2.20;;
5813;SDS011;2933;52.302;8.134;2022-09-09T05:46:13;2.60;;;2.40;;
5813;SDS011;2933;52.302;8.134;2022-09-09T05:51:18;2.53;;;2.33;;
5813;SDS011;2933;52.302;8.134;2022-09-09T05:56:24;5.27;;;2.20;;
5813;SDS011;2933;52.302;8.134;2022-09-09T06:01:30;2.40;;;2.20;;
5813;SDS011;2933;52.302;8.134;2022-09-09T06:06:33;2.10;;;1.90;;
5813;SDS011;2933;52.302;8.134;2022-09-09T06:11:38;2.33;;;2.13;;
5813;SDS011;2933;52.302;8.134;2022-09-09T06:16:45;4.00;;;1.97;;
5813;SDS011;2933;52.302;8.134;2022-09-09T06:21:53;2.53;;;1.83;;
5813;SDS011;2933;52.302;8.134;2022-09-09T06:27:00;1.67;;;1.50;;
5813;SDS011;2933;52.302;8.134;2022-09-09T06:32:11;1.60;;;1.50;;
5813;SDS011;2933;52.302;8.134;2022-09-09T06:37:20;1.63;;;1.53;;
5813;SDS011;2933;52.302;8.134;2022-09-09T06:42:24;3.77;;;1.77;;
5813;SDS011;2933;52.302;8.134;2022-09-09T06:47:34;2.00;;;1.63;;
5813;SDS011;2933;52.302;8.134;2022-09-09T06:52:42;3.17;;;1.63;;
5813;SDS011;2933;52.302;8.134;2022-09-09T06:57:53;1.70;;;1.60;;
5813;SDS011;2933;52.302;8.134;2022-09-09T07:14:47;2.97;;;1.30;;
5813;SDS011;2933;52.302;8.134;2022-09-09T07:25:32;4.93;;;1.70;;
5813;SDS011;2933;52.302;8.134;2022-09-09T07:30:54;2.23;;;1.47;;
5813;SDS011;2933;52.302;8.134;2022-09-09T07:47:05;9.47;;;2.53;;
5813;SDS011;2933;52.302;8.134;2022-09-09T07:52:12;1.70;;;1.60;;
5813;SDS011;2933;52.302;8.134;2022-09-09T07:57:14;3.53;;;1.47;;
5813;SDS011;2933;52.302;8.134;2022-09-09T08:02:18;2.93;;;1.40;;
5813;SDS011;2933;52.302;8.134;2022-09-09T08:07:27;4.00;;;2.00;;
5813;SDS011;2933;52.302;8.134;2022-09-09T08:12:32;1.83;;;1.60;;
5813;SDS011;2933;52.302;8.134;2022-09-09T08:17:44;6.27;;;2.00;;
5813;SDS011;2933;52.302;8.134;2022-09-09T08:23:10;2.50;;;1.83;;
5813;SDS011;2933;52.302;8.134;2022-09-09T08:29:07;4.57;;;1.90;;
5813;SDS011;2933;52.302;8.134;2022-09-09T08:46:05;4.60;;;1.60;;
5813;SDS011;2933;52.302;8.134;2022-09-09T08:51:48;4.10;;;1.20;;
5813;SDS011;2933;52.302;8.134;2022-09-09T08:57:14;3.73;;;1.67;;
5813;SDS011;2933;52.302;8.134;2022-09-09T09:02:47;5.67;;;1.50;;
5813;SDS011;2933;52.302;8.134;2022-09-09T09:08:20;2.40;;;1.70;;
5813;SDS011;2933;52.302;8.134;2022-09-09T09:19:40;6.83;;;1.93;;
5813;SDS011;2933;52.302;8.134;2022-09-09T09:25:00;7.00;;;2.13;;
5813;SDS011;2933;52.302;8.134;2022-09-09T09:36:41;10.30;;;2.73;;
5813;SDS011;2933;52.302;8.134;2022-09-09T09:48:34;2.90;;;1.90;;
5813;SDS011;2933;52.302;8.134;2022-09-09T09:53:37;10.37;;;2.10;;
5813;SDS011;2933;52.302;8.134;2022-09-09T09:58:47;4.60;;;1.87;;
5813;SDS011;2933;52.302;8.134;2022-09-09T10:03:53;4.13;;;2.27;;
5813;SDS011;2933;52.302;8.134;2022-09-09T10:08:58;3.83;;;2.23;;
5813;SDS011;2933;52.302;8.134;2022-09-09T10:14:02;5.07;;;2.40;;
5813;SDS011;2933;52.302;8.134;2022-09-09T10:19:15;2.30;;;2.10;;
5813;SDS011;2933;52.302;8.134;2022-09-09T10:24:32;4.30;;;2.60;;
5813;SDS011;2933;52.302;8.134;2022-09-09T10:29:47;3.17;;;2.30;;
5813;SDS011;2933;52.302;8.134;2022-09-09T10:35:04;4.83;;;2.43;;
5813;SDS011;2933;52.302;8.134;2022-09-09T10:40:21;3.03;;;2.37;;
5813;SDS011;2933;52.302;8.134;2022-09-09T10:45:33;6.10;;;2.40;;
5813;SDS011;2933;52.302;8.134;2022-09-09T10:50:53;3.10;;;2.57;;
5813;SDS011;2933;52.302;8.134;2022-09-09T10:56:01;2.80;;;2.07;;
5813;SDS011;2933;52.302;8.134;2022-09-09T11:01:09;5.00;;;1.67;;
5813;SDS011;2933;52.302;8.134;2022-09-09T11:06:18;3.83;;;1.50;;
5813;SDS011;2933;52.302;8.134;2022-09-09T11:11:25;3.13;;;1.63;;
5813;SDS011;2933;52.302;8.134;2022-09-09T11:16:32;2.43;;;1.07;;
5813;SDS011;2933;52.302;8.134;2022-09-09T11:21:40;3.07;;;1.20;;
5813;SDS011;2933;52.302;8.134;2022-09-09T11:26:47;3.47;;;1.37;;
5813;SDS011;2933;52.302;8.134;2022-09-09T11:31:57;4.90;;;1.30;;
5813;SDS011;2933;52.302;8.134;2022-09-09T11:42:39;3.50;;;1.40;;
5813;SDS011;2933;52.302;8.134;2022-09-09T11:47:50;3.27;;;1.20;;
5813;SDS011;2933;52.302;8.134;2022-09-09T11:53:04;2.60;;;1.57;;
5813;SDS011;2933;52.302;8.134;2022-09-09T11:58:24;4.30;;;1.60;;
5813;SDS011;2933;52.302;8.134;2022-09-09T12:03:32;2.27;;;1.37;;
5813;SDS011;2933;52.302;8.134;2022-09-09T12:08:42;1.90;;;1.40;;
5813;SDS011;2933;52.302;8.134;2022-09-09T12:13:51;3.73;;;1.57;;
5813;SDS011;2933;52.302;8.134;2022-09-09T12:19:02;2.40;;;1.17;;
5813;SDS011;2933;52.302;8.134;2022-09-09T12:24:10;4.10;;;1.23;;
5813;SDS011;2933;52.302;8.134;2022-09-09T12:29:18;3.07;;;1.60;;
5813;SDS011;2933;52.302;8.134;2022-09-09T12:34:32;2.80;;;1.77;;
5813;SDS011;2933;52.302;8.134;2022-09-09T12:39:40;3.23;;;2.30;;
5813;SDS011;2933;52.302;8.134;2022-09-09T12:44:56;2.40;;;2.27;;
5813;SDS011;2933;52.302;8.134;2022-09-09T12:49:59;3.20;;;2.00;;
5813;SDS011;2933;52.302;8.134;2022-09-09T12:55:03;3.00;;;1.80;;
5813;SDS011;2933;52.302;8.134;2022-09-09T13:00:12;4.47;;;2.20;;
5813;SDS011;2933;52.302;8.134;2022-09-09T13:05:18;5.27;;;2.17;;
5813;SDS011;2933;52.302;8.134;2022-09-09T13:10:24;2.63;;;1.43;;
5813;SDS011;2933;52.302;8.134;2022-09-09T13:15:29;2.10;;;1.30;;
5813;SDS011;2933;52.302;8.134;2022-09-09T13:20:31;2.77;;;1.57;;
5813;SDS011;2933;52.302;8.134;2022-09-09T13:25:34;3.90;;;1.93;;
5813;SDS011;2933;52.302;8.134;2022-09-09T13:30:38;3.03;;;1.83;;
5813;SDS011;2933;52.302;8.134;2022-09-09T13:35:45;2.60;;;1.80;;
5813;SDS011;2933;52.302;8.134;2022-09-09T13:40:54;3.00;;;1.90;;
5813;SDS011;2933;52.302;8.134;2022-09-09T13:45:58;6.97;;;1.63;;
5813;SDS011;2933;52.302;8.134;2022-09-09T13:51:02;3.93;;;1.77;;
5813;SDS011;2933;52.302;8.134;2022-09-09T13:56:07;1.80;;;1.50;;
5813;SDS011;2933;52.302;8.134;2022-09-09T14:01:08;2.13;;;1.40;;
5813;SDS011;2933;52.302;8.134;2022-09-09T14:06:11;1.27;;;1.17;;
5813;SDS011;2933;52.302;8.134;2022-09-09T14:11:15;2.53;;;0.90;;
5813;SDS011;2933;52.302;8.134;2022-09-09T14:16:17;1.30;;;0.80;;
5813;SDS011;2933;52.302;8.134;2022-09-09T14:21:19;1.23;;;0.93;;
5813;SDS011;2933;52.302;8.134;2022-09-09T14:26:23;4.50;;;1.33;;
5813;SDS011;2933;52.302;8.134;2022-09-09T14:31:26;1.20;;;1.00;;
5813;SDS011;2933;52.302;8.134;2022-09-09T14:36:27;3.23;;;1.00;;
5813;SDS011;2933;52.302;8.134;2022-09-09T14:41:31;2.10;;;1.30;;
5813;SDS011;2933;52.302;8.134;2022-09-09T14:46:33;1.37;;;1.17;;
5813;SDS011;2933;52.302;8.134;2022-09-09T14:51:34;2.03;;;1.73;;
5813;SDS011;2933;52.302;8.134;2022-09-09T14:56:37;2.67;;;1.30;;
5813;SDS011;2933;52.302;8.134;2022-09-09T15:01:39;5.13;;;2.33;;
5813;SDS011;2933;52.302;8.134;2022-09-09T15:06:41;1.70;;;1.60;;
5813;SDS011;2933;52.302;8.134;2022-09-09T15:11:51;2.40;;;1.60;;
5813;SDS011;2933;52.302;8.134;2022-09-09T15:16:57;2.00;;;1.90;;
5813;SDS011;2933;52.302;8.134;2022-09-09T15:21:59;2.50;;;2.00;;
5813;SDS011;2933;52.302;8.134;2022-09-09T15:27:08;4.50;;;2.10;;
5813;SDS011;2933;52.302;8.134;2022-09-09T15:32:12;3.10;;;2.20;;
5813;SDS011;2933;52.302;8.134;2022-09-09T15:37:24;1.87;;;1.77;;
5813;SDS011;2933;52.302;8.134;2022-09-09T15:42:29;1.93;;;1.83;;
5813;SDS011;2933;52.302;8.134;2022-09-09T15:47:33;5.63;;;1.67;;
5813;SDS011;2933;52.302;8.134;2022-09-09T15:52:39;3.83;;;1.87;;
5813;SDS011;2933;52.302;8.134;2022-09-09T15:57:44;1.83;;;1.73;;
5813;SDS011;2933;52.302;8.134;2022-09-09T16:02:53;2.10;;;1.17;;
5813;SDS011;2933;52.302;8.134;2022-09-09T16:07:56;1.30;;;1.20;;
5813;SDS011;2933;52.302;8.134;2022-09-09T16:13:06;1.20;;;1.13;;
5813;SDS011;2933;52.302;8.134;2022-09-09T16:18:39;1.90;;;1.07;;
5813;SDS011;2933;52.302;8.134;2022-09-09T16:23:56;0.90;;;0.90;;
5813;SDS011;2933;52.302;8.134;2022-09-09T16:29:19;1.20;;;1.10;;
5813;SDS011;2933;52.302;8.134;2022-09-09T16:34:23;0.97;;;0.90;;
5813;SDS011;2933;52.302;8.134;2022-09-09T16:39:30;9.30;;;1.20;;
5813;SDS011;2933;52.302;8.134;2022-09-09T16:44:44;1.40;;;1.07;;
5813;SDS011;2933;52.302;8.134;2022-09-09T16:49:54;1.77;;;1.10;;
5813;SDS011;2933;52.302;8.134;2022-09-09T16:54:58;0.97;;;0.83;;
5813;SDS011;2933;52.302;8.134;2022-09-09T17:00:05;0.80;;;0.80;;
5813;SDS011;2933;52.302;8.134;2022-09-09T17:05:11;3.83;;;1.40;;
5813;SDS011;2933;52.302;8.134;2022-09-09T17:10:17;6.13;;;1.23;;
5813;SDS011;2933;52.302;8.134;2022-09-09T17:15:26;7.43;;;1.73;;
5813;SDS011;2933;52.302;8.134;2022-09-09T17:20:35;1.10;;;1.00;;
5813;SDS011;2933;52.302;8.134;2022-09-09T17:25:39;9.83;;;1.60;;
5813;SDS011;2933;52.302;8.134;2022-09-09T17:30:54;1.30;;;1.27;;
5813;SDS011;2933;52.302;8.134;2022-09-09T17:35:59;1.87;;;1.77;;
5813;SDS011;2933;52.302;8.134;2022-09-09T17:41:16;1.87;;;1.77;;
5813;SDS011;2933;52.302;8.134;2022-09-09T17:46:29;1.87;;;1.77;;
5813;SDS011;2933;52.302;8.134;2022-09-09T17:51:37;0.93;;;0.93;;
5813;SDS011;2933;52.302;8.134;2022-09-09T17:56:41;2.97;;;0.80;;
5813;SDS011;2933;52.302;8.134;2022-09-09T18:02:00;1.00;;;0.90;;
5813;SDS011;2933;52.302;8.134;2022-09-09T18:07:10;4.30;;;1.10;;
5813;SDS011;2933;52.302;8.134;2022-09-09T18:12:30;3.93;;;1.03;;
5813;SDS011;2933;52.302;8.134;2022-09-09T18:17:37;1.63;;;1.40;;
5813;SDS011;2933;52.302;8.134;2022-09-09T18:22:42;1.50;;;1.00;;
5813;SDS011;2933;52.302;8.134;2022-09-09T18:27:49;2.70;;;1.50;;
5813;SDS011;2933;52.302;8.134;2022-09-09T18:38:43;1.03;;;0.93;;
5813;SDS011;2933;52.302;8.134;2022-09-09T18:43:59;1.77;;;0.97;;
5813;SDS011;2933;52.302;8.134;2022-09-09T18:49:32;2.23;;;0.87;;
5813;SDS011;2933;52.302;8.134;2022-09-09T18:54:42;3.03;;;1.00;;
5813;SDS011;2933;52.302;8.134;2022-09-09T19:00:02;1.13;;;0.80;;
5813;SDS011;2933;52.302;8.134;2022-09-09T19:10:59;1.50;;;0.80;;
5813;SDS011;2933;52.302;8.134;2022-09-09T19:21:28;1.83;;;0.60;;
5813;SDS011;2933;52.302;8.134;2022-09-09T19:26:33;0.73;;;0.60;;
5813;SDS011;2933;52.302;8.134;2022-09-09T19:31:39;2.20;;;1.60;;
5813;SDS011;2933;52.302;8.134;2022-09-09T19:36:42;1.57;;;0.67;;
5813;SDS011;2933;52.302;8.134;2022-09-09T19:41:44;0.43;;;0.43;;
5813;SDS011;2933;52.302;8.134;2022-09-09T19:46:46;0.70;;;0.60;;
5813;SDS011;2933;52.302;8.134;2022-09-09T19:51:52;0.60;;;0.60;;
5813;SDS011;2933;52.302;8.134;2022-09-09T19:56:54;0.60;;;0.60;;
5813;SDS011;2933;52.302;8.134;2022-09-09T20:01:56;0.50;;;0.50;;
5813;SDS011;2933;52.302;8.134;2022-09-09T20:06:59;0.80;;;0.50;;
5813;SDS011;2933;52.302;8.134;2022-09-09T20:12:01;3.33;;;0.60;;
5813;SDS011;2933;52.302;8.134;2022-09-09T20:17:03;1.67;;;0.50;;
5813;SDS011;2933;52.302;8.134;2022-09-09T20:22:06;2.07;;;0.57;;
5813;SDS011;2933;52.302;8.134;2022-09-09T20:27:07;0.67;;;0.67;;
5813;SDS011;2933;52.302;8.134;2022-09-09T20:32:09;1.03;;;0.73;;
5813;SDS011;2933;52.302;8.134;2022-09-09T20:37:12;0.50;;;0.50;;
5813;SDS011;2933;52.302;8.134;2022-09-09T20:42:14;0.70;;;0.70;;
5813;SDS011;2933;52.302;8.134;2022-09-09T20:47:18;0.50;;;0.50;;
5813;SDS011;2933;52.302;8.134;2022-09-09T20:52:21;3.20;;;1.00;;
5813;SDS011;2933;52.302;8.134;2022-09-09T20:57:22;2.40;;;0.67;;
5813;SDS011;2933;52.302;8.134;2022-09-09T21:02:24;1.47;;;0.77;;
5813;SDS011;2933;52.302;8.134;2022-09-09T21:07:27;1.40;;;1.00;;
5813;SDS011;2933;52.302;8.134;2022-09-09T21:12:29;2.53;;;1.37;;
5813;SDS011;2933;52.302;8.134;2022-09-09T21:17:30;2.60;;;1.70;;
5813;SDS011;2933;52.302;8.134;2022-09-09T21:22:34;3.13;;;2.27;;
5813;SDS011;2933;52.302;8.134;2022-09-09T21:27:35;2.20;;;1.87;;
5813;SDS011;2933;52.302;8.134;2022-09-09T21:32:37;4.63;;;1.63;;
5813;SDS011;2933;52.302;8.134;2022-09-09T21:37:40;1.60;;;1.50;;
5813;SDS011;2933;52.302;8.134;2022-09-09T21:42:41;1.20;;;1.20;;
5813;SDS011;2933;52.302;8.134;2022-09-09T21:47:43;1.63;;;1.37;;
5813;SDS011;2933;52.302;8.134;2022-09-09T21:52:48;1.30;;;1.20;;
5813;SDS011;2933;52.302;8.134;2022-09-09T21:57:50;1.10;;;1.10;;
5813;SDS011;2933;52.302;8.134;2022-09-09T22:02:51;2.23;;;1.23;;
5813;SDS011;2933;52.302;8.134;2022-09-09T22:07:54;1.67;;;1.57;;
5813;SDS011;2933;52.302;8.134;2022-09-09T22:12:56;1.57;;;1.47;;
5813;SDS011;2933;52.302;8.134;2022-09-09T22:17:58;3.10;;;1.50;;
5813;SDS011;2933;52.302;8.134;2022-09-09T22:23:03;4.47;;;1.43;;
5813;SDS011;2933;52.302;8.134;2022-09-09T22:28:06;1.20;;;1.20;;
5813;SDS011;2933;52.302;8.134;2022-09-09T22:33:09;1.37;;;1.27;;
5813;SDS011;2933;52.302;8.134;2022-09-09T22:38:12;1.60;;;1.50;;
5813;SDS011;2933;52.302;8.134;2022-09-09T22:43:14;1.63;;;1.40;;
5813;SDS011;2933;52.302;8.134;2022-09-09T22:48:18;1.80;;;1.37;;
5813;SDS011;2933;52.302;8.134;2022-09-09T22:53:21;1.70;;;1.60;;
5813;SDS011;2933;52.302;8.134;2022-09-09T22:58:23;1.63;;;1.47;;
5813;SDS011;2933;52.302;8.134;2022-09-09T23:03:25;2.40;;;1.83;;
5813;SDS011;2933;52.302;8.134;2022-09-09T23:08:29;3.27;;;2.53;;
5813;SDS011;2933;52.302;8.134;2022-09-09T23:13:32;4.70;;;2.70;;
5813;SDS011;2933;52.302;8.134;2022-09-09T23:18:34;4.27;;;2.87;;
5813;SDS011;2933;52.302;8.134;2022-09-09T23:23:37;4.60;;;3.17;;
5813;SDS011;2933;52.302;8.134;2022-09-09T23:28:41;3.93;;;3.57;;
5813;SDS011;2933;52.302;8.134;2022-09-09T23:33:43;5.13;;;3.20;;
5813;SDS011;2933;52.302;8.134;2022-09-09T23:38:46;4.50;;;3.73;;
5813;SDS011;2933;52.302;8.134;2022-09-09T23:43:48;4.23;;;3.93;;
5813;SDS011;2933;52.302;8.134;2022-09-09T23:48:51;5.20;;;4.00;;
5813;SDS011;2933;52.302;8.134;2022-09-09T23:53:55;5.17;;;4.67;;
5813;SDS011;2933;52.302;8.134;2022-09-09T23:58:59;6.67;;;5.83;;
